< Typhoon 200908 2009 Season Typhoon 200910 >
Typhoon 200909 (ETAU)
General InformationTrack Information on Google MapsDetailed Wind InformationAccess Analytics MapList of All Images || NewsDisaster Info.WeblogTrackbackTyphoon FrontTyphoon ImaginationResourceGoogle EarthGE AnimationAtom FeedGeoJSON
Detalied Best Track (Time Zone = UTC)
Year Month Day Hour Lat. Long. Pressure (hPa) Wind (kt) Class Image Chart
2009 8 8 00 22.7 139.7 998 0 2 Image Chart
2009 8 8 06 23.5 139.0 996 0 2 Image Chart
2009 8 8 12 24.2 138.2 996 0 2 Image Chart
2009 8 8 18 25.3 136.9 996 0 2 Image Chart
2009 8 9 00 26.0 136.3 996 0 2 Image Chart
2009 8 9 06 27.0 135.2 994 35 3 Image Chart
2009 8 9 12 27.9 134.8 994 35 3 Image Chart
2009 8 9 18 28.9 134.3 994 35 3 Image Chart
2009 8 9 21 29.4 134.3 994 35 3 Image Chart
2009 8 10 00 30.0 134.4 992 40 3 Image Chart
2009 8 10 03 30.6 134.6 992 40 3 Image Chart
2009 8 10 06 31.1 135.2 992 40 3 Image Chart
2009 8 10 09 31.6 135.6 992 40 3 Image Chart
2009 8 10 12 32.0 135.9 992 40 3 Image Chart
2009 8 10 15 32.3 136.4 992 40 3 Image Chart
2009 8 10 18 32.7 136.9 992 40 3 Image Chart
2009 8 10 21 32.9 137.9 992 40 3 Image Chart
2009 8 11 00 33.2 138.6 992 40 3 Image Chart
2009 8 11 03 33.3 139.7 992 40 3 Image Chart
2009 8 11 06 33.4 140.8 992 40 3 Image Chart
2009 8 11 09 33.2 141.8 992 40 3 Image Chart
2009 8 11 12 33.1 143.0 992 40 3 Image Chart
2009 8 11 18 32.7 145.2 992 40 3 Image Chart
2009 8 12 00 32.5 148.3 992 40 3 Image Chart
2009 8 12 06 32.3 150.6 992 40 3 Image Chart
2009 8 12 12 33.2 151.8 992 35 3 Image Chart
2009 8 12 18 33.5 151.8 992 35 3 Image Chart
2009 8 13 00 33.8 151.7 994 0 2 Image Chart
2009 8 13 06 34.4 151.6 994 0 2 Image Chart
2009 8 13 12 34.9 151.9 996 0 2 Image Chart
2009 8 13 18 35.6 152.0 998 0 2 Image Chart
2009 8 14 00 36.4 152.9 1000 0 2 Image Chart
2009 8 14 06 37.4 154.2 1002 0 2 Image Chart
2009 8 14 12 39.1 155.9 1004 0 6 Image Chart
2009 8 14 18 40.3 158.9 1002 0 6 Image Chart
2009 8 15 00 41.0 163.1 1002 0 6 Image Chart
2009 8 15 06 41.3 167.9 1002 0 6 Image Chart
2009 8 15 12 41.8 173.5 1002 0 6 Image Chart
2009 8 15 18 42.3 179.1 1000 0 6 Image Chart
2009 8 16 00 43.0 184.7 998 0 6 Image Chart
Japan Meteorological Agency Best Track Data | Correction Date : 2009-10-02
< Typhoon 200908 2009 Season Typhoon 200910 >

Help